sensor_id;sensor_type;location;lat;lon;timestamp;pressure;altitude;pressure_sealevel;temperature;humidity
71964;BME280;59834;52.124;5.422;2024-03-06T00:01:52;101842.50;;;5.75;100.00
71964;BME280;59834;52.124;5.422;2024-03-06T00:04:19;101848.59;;;5.74;100.00
71964;BME280;59834;52.124;5.422;2024-03-06T00:06:46;101842.66;;;5.68;100.00
71964;BME280;59834;52.124;5.422;2024-03-06T00:09:12;101843.66;;;5.64;100.00
71964;BME280;59834;52.124;5.422;2024-03-06T00:11:39;101847.16;;;5.63;100.00
71964;BME280;59834;52.124;5.422;2024-03-06T00:14:07;101853.28;;;5.59;100.00
71964;BME280;59834;52.124;5.422;2024-03-06T00:16:34;101858.47;;;5.59;100.00
71964;BME280;59834;52.124;5.422;2024-03-06T00:19:01;101861.00;;;5.62;100.00
71964;BME280;59834;52.124;5.422;2024-03-06T00:21:28;101862.72;;;5.63;100.00
71964;BME280;59834;52.124;5.422;2024-03-06T00:23:55;101872.25;;;5.63;100.00
71964;BME280;59834;52.124;5.422;2024-03-06T00:26:22;101860.16;;;5.62;100.00
71964;BME280;59834;52.124;5.422;2024-03-06T00:28:48;101867.03;;;5.63;100.00
71964;BME280;59834;52.124;5.422;2024-03-06T00:31:15;101861.84;;;5.63;100.00
71964;BME280;59834;52.124;5.422;2024-03-06T00:33:42;101865.41;;;5.60;100.00
71964;BME280;59834;52.124;5.422;2024-03-06T00:36:09;101868.88;;;5.59;100.00
71964;BME280;59834;52.124;5.422;2024-03-06T00:38:35;101870.63;;;5.59;100.00
71964;BME280;59834;52.124;5.422;2024-03-06T00:41:02;101878.38;;;5.60;100.00
71964;BME280;59834;52.124;5.422;2024-03-06T00:43:30;101872.28;;;5.61;100.00
71964;BME280;59834;52.124;5.422;2024-03-06T00:45:57;101866.19;;;5.62;100.00
71964;BME280;59834;52.124;5.422;2024-03-06T00:48:26;101875.66;;;5.65;100.00
71964;BME280;59834;52.124;5.422;2024-03-06T00:50:52;101867.91;;;5.63;100.00
71964;BME280;59834;52.124;5.422;2024-03-06T00:53:19;101874.84;;;5.63;100.00
71964;BME280;59834;52.124;5.422;2024-03-06T00:55:46;101875.72;;;5.63;100.00
71964;BME280;59834;52.124;5.422;2024-03-06T00:58:13;101880.09;;;5.61;100.00
71964;BME280;59834;52.124;5.422;2024-03-06T01:00:39;101887.94;;;5.58;100.00
71964;BME280;59834;52.124;5.422;2024-03-06T01:03:06;101885.34;;;5.58;100.00
71964;BME280;59834;52.124;5.422;2024-03-06T01:05:33;101888.00;;;5.57;100.00
71964;BME280;59834;52.124;5.422;2024-03-06T01:08:00;101891.41;;;5.59;100.00
71964;BME280;59834;52.124;5.422;2024-03-06T01:10:26;101893.09;;;5.60;100.00
71964;BME280;59834;52.124;5.422;2024-03-06T01:12:53;101894.75;;;5.62;100.00
71964;BME280;59834;52.124;5.422;2024-03-06T01:15:20;101899.16;;;5.60;100.00
71964;BME280;59834;52.124;5.422;2024-03-06T01:17:46;101891.38;;;5.60;100.00
71964;BME280;59834;52.124;5.422;2024-03-06T01:20:13;101898.25;;;5.61;100.00
71964;BME280;59834;52.124;5.422;2024-03-06T01:22:40;101897.38;;;5.62;100.00
71964;BME280;59834;52.124;5.422;2024-03-06T01:25:07;101907.75;;;5.62;100.00
71964;BME280;59834;52.124;5.422;2024-03-06T01:27:34;101903.47;;;5.61;100.00
71964;BME280;59834;52.124;5.422;2024-03-06T01:30:00;101903.41;;;5.63;100.00
71964;BME280;59834;52.124;5.422;2024-03-06T01:32:27;101906.81;;;5.65;100.00
71964;BME280;59834;52.124;5.422;2024-03-06T01:34:54;101905.94;;;5.66;100.00
71964;BME280;59834;52.124;5.422;2024-03-06T01:37:21;101920.63;;;5.67;100.00
71964;BME280;59834;52.124;5.422;2024-03-06T01:39:48;101921.56;;;5.64;100.00
71964;BME280;59834;52.124;5.422;2024-03-06T01:42:17;101922.47;;;5.63;100.00
71964;BME280;59834;52.124;5.422;2024-03-06T01:44:44;101921.63;;;5.61;100.00
71964;BME280;59834;52.124;5.422;2024-03-06T01:47:11;101913.03;;;5.59;100.00
71964;BME280;59834;52.124;5.422;2024-03-06T01:49:38;101912.31;;;5.54;100.00
71964;BME280;59834;52.124;5.422;2024-03-06T01:52:13;101915.91;;;5.49;100.00
71964;BME280;59834;52.124;5.422;2024-03-06T01:54:41;101908.22;;;5.44;100.00
71964;BME280;59834;52.124;5.422;2024-03-06T01:57:10;101909.28;;;5.37;100.00
71964;BME280;59834;52.124;5.422;2024-03-06T01:59:40;101913.78;;;5.29;100.00
71964;BME280;59834;52.124;5.422;2024-03-06T02:02:08;101918.31;;;5.20;100.00
71964;BME280;59834;52.124;5.422;2024-03-06T02:04:38;101920.22;;;5.12;100.00
71964;BME280;59834;52.124;5.422;2024-03-06T02:07:08;101921.31;;;5.04;100.00
71964;BME280;59834;52.124;5.422;2024-03-06T02:09:38;101923.13;;;5.00;100.00
71964;BME280;59834;52.124;5.422;2024-03-06T02:12:06;101918.91;;;4.94;100.00
71964;BME280;59834;52.124;5.422;2024-03-06T02:14:36;101924.31;;;4.85;100.00
71964;BME280;59834;52.124;5.422;2024-03-06T02:17:02;101931.34;;;4.80;100.00
71964;BME280;59834;52.124;5.422;2024-03-06T02:19:39;101928.81;;;4.77;100.00
71964;BME280;59834;52.124;5.422;2024-03-06T02:22:07;101928.97;;;4.71;100.00
71964;BME280;59834;52.124;5.422;2024-03-06T02:24:34;101936.84;;;4.66;100.00
71964;BME280;59834;52.124;5.422;2024-03-06T02:27:02;101932.53;;;4.65;100.00
71964;BME280;59834;52.124;5.422;2024-03-06T02:29:29;101923.09;;;4.63;100.00
71964;BME280;59834;52.124;5.422;2024-03-06T02:31:55;101930.94;;;4.58;100.00
71964;BME280;59834;52.124;5.422;2024-03-06T02:34:22;101932.81;;;4.53;100.00
71964;BME280;59834;52.124;5.422;2024-03-06T02:36:51;101929.38;;;4.51;100.00
71964;BME280;59834;52.124;5.422;2024-03-06T02:39:18;101936.31;;;4.49;100.00
71964;BME280;59834;52.124;5.422;2024-03-06T02:41:47;101935.50;;;4.47;100.00
71964;BME280;59834;52.124;5.422;2024-03-06T02:44:13;101932.94;;;4.47;100.00
71964;BME280;59834;52.124;5.422;2024-03-06T02:46:41;101938.97;;;4.47;100.00
71964;BME280;59834;52.124;5.422;2024-03-06T02:49:07;101944.25;;;4.43;100.00
71964;BME280;59834;52.124;5.422;2024-03-06T02:51:34;101936.53;;;4.38;100.00
71964;BME280;59834;52.124;5.422;2024-03-06T02:54:01;101938.28;;;4.38;100.00
71964;BME280;59834;52.124;5.422;2024-03-06T02:56:27;101941.94;;;4.28;100.00
71964;BME280;59834;52.124;5.422;2024-03-06T02:58:54;101940.47;;;4.16;100.00
71964;BME280;59834;52.124;5.422;2024-03-06T03:01:21;101936.31;;;4.07;100.00
71964;BME280;59834;52.124;5.422;2024-03-06T03:03:48;101944.19;;;4.01;100.00
71964;BME280;59834;52.124;5.422;2024-03-06T03:06:15;101942.47;;;4.00;100.00
71964;BME280;59834;52.124;5.422;2024-03-06T03:08:42;101939.03;;;3.99;100.00
71964;BME280;59834;52.124;5.422;2024-03-06T03:11:08;101943.34;;;4.00;100.00
71964;BME280;59834;52.124;5.422;2024-03-06T03:13:36;101947.66;;;3.98;100.00
71964;BME280;59834;52.124;5.422;2024-03-06T03:16:03;101944.22;;;3.98;100.00
71964;BME280;59834;52.124;5.422;2024-03-06T03:18:30;101944.28;;;3.95;100.00
71964;BME280;59834;52.124;5.422;2024-03-06T03:20:57;101947.72;;;3.95;100.00
71964;BME280;59834;52.124;5.422;2024-03-06T03:23:24;101947.72;;;3.95;100.00
71964;BME280;59834;52.124;5.422;2024-03-06T03:25:51;101946.03;;;3.96;100.00
71964;BME280;59834;52.124;5.422;2024-03-06T03:28:18;101950.31;;;3.95;100.00
71964;BME280;59834;52.124;5.422;2024-03-06T03:30:44;101952.06;;;3.95;100.00
71964;BME280;59834;52.124;5.422;2024-03-06T03:33:12;101945.19;;;3.94;100.00
71964;BME280;59834;52.124;5.422;2024-03-06T03:35:39;101948.66;;;3.91;100.00
71964;BME280;59834;52.124;5.422;2024-03-06T03:38:06;101947.03;;;3.87;100.00
71964;BME280;59834;52.124;5.422;2024-03-06T03:40:32;101941.81;;;3.89;100.00
71964;BME280;59834;52.124;5.422;2024-03-06T03:42:59;101953.94;;;3.87;100.00
71964;BME280;59834;52.124;5.422;2024-03-06T03:45:32;101958.28;;;3.85;100.00
71964;BME280;59834;52.124;5.422;2024-03-06T03:48:03;101960.91;;;3.83;100.00
71964;BME280;59834;52.124;5.422;2024-03-06T03:50:30;101961.78;;;3.82;100.00
71964;BME280;59834;52.124;5.422;2024-03-06T03:52:57;101955.78;;;3.80;100.00
71964;BME280;59834;52.124;5.422;2024-03-06T03:55:24;101962.72;;;3.78;100.00
71964;BME280;59834;52.124;5.422;2024-03-06T03:57:51;101964.53;;;3.73;100.00
71964;BME280;59834;52.124;5.422;2024-03-06T04:00:19;101961.22;;;3.66;100.00
71964;BME280;59834;52.124;5.422;2024-03-06T04:02:45;101962.91;;;3.67;100.00
71964;BME280;59834;52.124;5.422;2024-03-06T04:05:12;101964.59;;;3.68;100.00
71964;BME280;59834;52.124;5.422;2024-03-06T04:07:39;101971.56;;;3.66;100.00
71964;BME280;59834;52.124;5.422;2024-03-06T04:10:06;101969.84;;;3.65;100.00
71964;BME280;59834;52.124;5.422;2024-03-06T04:12:33;101972.59;;;3.56;100.00
71964;BME280;59834;52.124;5.422;2024-03-06T04:15:00;101969.22;;;3.51;100.00
71964;BME280;59834;52.124;5.422;2024-03-06T04:17:27;101964.91;;;3.50;100.00
71964;BME280;59834;52.124;5.422;2024-03-06T04:19:53;101973.63;;;3.46;100.00
71964;BME280;59834;52.124;5.422;2024-03-06T04:22:22;101974.59;;;3.39;100.00
71964;BME280;59834;52.124;5.422;2024-03-06T04:24:48;101966.16;;;3.26;100.00
71964;BME280;59834;52.124;5.422;2024-03-06T04:27:15;101977.47;;;3.19;100.00
71964;BME280;59834;52.124;5.422;2024-03-06T04:29:43;101975.91;;;3.07;100.00
71964;BME280;59834;52.124;5.422;2024-03-06T04:32:09;101975.06;;;3.05;100.00
71964;BME280;59834;52.124;5.422;2024-03-06T04:34:36;101979.44;;;3.03;100.00
71964;BME280;59834;52.124;5.422;2024-03-06T04:37:04;101978.63;;;2.98;100.00
71964;BME280;59834;52.124;5.422;2024-03-06T04:39:32;101984.72;;;2.95;100.00
71964;BME280;59834;52.124;5.422;2024-03-06T04:41:58;101990.75;;;2.96;100.00
71964;BME280;59834;52.124;5.422;2024-03-06T04:44:25;101993.31;;;2.94;100.00
71964;BME280;59834;52.124;5.422;2024-03-06T04:46:52;102000.28;;;2.91;100.00
71964;BME280;59834;52.124;5.422;2024-03-06T04:49:18;102001.31;;;2.79;100.00
71964;BME280;59834;52.124;5.422;2024-03-06T04:51:45;102001.38;;;2.73;100.00
71964;BME280;59834;52.124;5.422;2024-03-06T04:54:12;102003.09;;;2.72;100.00
71964;BME280;59834;52.124;5.422;2024-03-06T04:56:38;102000.56;;;2.69;100.00
71964;BME280;59834;52.124;5.422;2024-03-06T04:59:05;102015.16;;;2.73;100.00
71964;BME280;59834;52.124;5.422;2024-03-06T05:01:32;102009.91;;;2.79;100.00
71964;BME280;59834;52.124;5.422;2024-03-06T05:03:59;102010.69;;;2.84;100.00
71964;BME280;59834;52.124;5.422;2024-03-06T05:06:43;102013.22;;;2.88;100.00
71964;BME280;59834;52.124;5.422;2024-03-06T05:09:27;102015.81;;;2.88;100.00
71964;BME280;59834;52.124;5.422;2024-03-06T05:12:10;102015.03;;;2.82;100.00
71964;BME280;59834;52.124;5.422;2024-03-06T05:14:55;102017.59;;;2.86;100.00
71964;BME280;59834;52.124;5.422;2024-03-06T05:17:39;102022.75;;;2.86;100.00
71964;BME280;59834;52.124;5.422;2024-03-06T05:20:23;102023.63;;;2.84;100.00
71964;BME280;59834;52.124;5.422;2024-03-06T05:23:08;102028.81;;;2.81;100.00
71964;BME280;59834;52.124;5.422;2024-03-06T05:25:52;102036.56;;;2.83;100.00
71964;BME280;59834;52.124;5.422;2024-03-06T05:28:36;102040.91;;;2.82;100.00
71964;BME280;59834;52.124;5.422;2024-03-06T05:31:20;102042.63;;;2.80;100.00
71964;BME280;59834;52.124;5.422;2024-03-06T05:34:05;102047.88;;;2.74;100.00
71964;BME280;59834;52.124;5.422;2024-03-06T05:36:49;102049.69;;;2.65;100.00
71964;BME280;59834;52.124;5.422;2024-03-06T05:39:34;102055.78;;;2.62;100.00
71964;BME280;59834;52.124;5.422;2024-03-06T05:42:18;102055.75;;;2.65;100.00
71964;BME280;59834;52.124;5.422;2024-03-06T05:45:02;102050.63;;;2.62;100.00
71964;BME280;59834;52.124;5.422;2024-03-06T05:47:48;102065.28;;;2.60;100.00
71964;BME280;59834;52.124;5.422;2024-03-06T05:50:33;102067.84;;;2.60;100.00
71964;BME280;59834;52.124;5.422;2024-03-06T05:53:18;102064.44;;;2.56;100.00
71964;BME280;59834;52.124;5.422;2024-03-06T05:56:05;102069.66;;;2.55;100.00
71964;BME280;59834;52.124;5.422;2024-03-06T05:58:49;102074.81;;;2.53;100.00
71964;BME280;59834;52.124;5.422;2024-03-06T06:01:16;102074.75;;;2.58;100.00
71964;BME280;59834;52.124;5.422;2024-03-06T06:03:50;102083.38;;;2.62;100.00
71964;BME280;59834;52.124;5.422;2024-03-06T06:06:17;102089.38;;;2.65;100.00
71964;BME280;59834;52.124;5.422;2024-03-06T06:08:45;102087.56;;;2.70;100.00
71964;BME280;59834;52.124;5.422;2024-03-06T06:11:12;102098.72;;;2.75;100.00
71964;BME280;59834;52.124;5.422;2024-03-06T06:13:39;102096.13;;;2.78;100.00
71964;BME280;59834;52.124;5.422;2024-03-06T06:16:06;102097.81;;;2.79;100.00
71964;BME280;59834;52.124;5.422;2024-03-06T06:18:33;102096.06;;;2.81;100.00
71964;BME280;59834;52.124;5.422;2024-03-06T06:21:00;102103.81;;;2.81;100.00
71964;BME280;59834;52.124;5.422;2024-03-06T06:23:26;102106.44;;;2.80;100.00
71964;BME280;59834;52.124;5.422;2024-03-06T06:25:53;102112.47;;;2.79;100.00
71964;BME280;59834;52.124;5.422;2024-03-06T06:28:20;102110.75;;;2.79;100.00
71964;BME280;59834;52.124;5.422;2024-03-06T06:30:47;102115.09;;;2.74;100.00
71964;BME280;59834;52.124;5.422;2024-03-06T06:33:14;102122.06;;;2.69;100.00
71964;BME280;59834;52.124;5.422;2024-03-06T06:35:41;102123.78;;;2.67;100.00
71964;BME280;59834;52.124;5.422;2024-03-06T06:38:08;102127.22;;;2.68;100.00
71964;BME280;59834;52.124;5.422;2024-03-06T06:40:35;102126.38;;;2.69;100.00
71964;BME280;59834;52.124;5.422;2024-03-06T06:43:02;102133.22;;;2.71;100.00
71964;BME280;59834;52.124;5.422;2024-03-06T06:45:29;102142.66;;;2.78;100.00
71964;BME280;59834;52.124;5.422;2024-03-06T06:47:55;102146.06;;;2.80;100.00
71964;BME280;59834;52.124;5.422;2024-03-06T06:50:22;102148.69;;;2.77;100.00
71964;BME280;59834;52.124;5.422;2024-03-06T06:52:52;102152.13;;;2.79;100.00
71964;BME280;59834;52.124;5.422;2024-03-06T06:55:19;102161.56;;;2.83;100.00
71964;BME280;59834;52.124;5.422;2024-03-06T06:57:49;102167.47;;;2.93;100.00
71964;BME280;59834;52.124;5.422;2024-03-06T07:00:17;102166.66;;;2.90;100.00
71964;BME280;59834;52.124;5.422;2024-03-06T07:02:45;102168.34;;;2.94;100.00
71964;BME280;59834;52.124;5.422;2024-03-06T07:05:11;102168.34;;;2.94;100.00
71964;BME280;59834;52.124;5.422;2024-03-06T07:07:39;102176.81;;;3.05;100.00
71964;BME280;59834;52.124;5.422;2024-03-06T07:10:07;102187.13;;;3.13;100.00
71964;BME280;59834;52.124;5.422;2024-03-06T07:12:34;102181.91;;;3.14;100.00
71964;BME280;59834;52.124;5.422;2024-03-06T07:15:00;102187.13;;;3.13;100.00
71964;BME280;59834;52.124;5.422;2024-03-06T07:17:28;102189.66;;;3.14;100.00
71964;BME280;59834;52.124;5.422;2024-03-06T07:19:55;102193.09;;;3.18;100.00
71964;BME280;59834;52.124;5.422;2024-03-06T07:22:24;102197.38;;;3.20;100.00
71964;BME280;59834;52.124;5.422;2024-03-06T07:24:51;102196.47;;;3.26;100.00
71964;BME280;59834;52.124;5.422;2024-03-06T07:27:17;102197.28;;;3.28;100.00
71964;BME280;59834;52.124;5.422;2024-03-06T07:29:44;102197.22;;;3.34;100.00
71964;BME280;59834;52.124;5.422;2024-03-06T07:32:11;102198.00;;;3.41;100.00
71964;BME280;59834;52.124;5.422;2024-03-06T07:34:38;102197.06;;;3.46;100.00
71964;BME280;59834;52.124;5.422;2024-03-06T07:37:05;102205.66;;;3.50;100.00
71964;BME280;59834;52.124;5.422;2024-03-06T07:39:32;102201.25;;;3.57;100.00
71964;BME280;59834;52.124;5.422;2024-03-06T07:41:59;102203.81;;;3.58;100.00
71964;BME280;59834;52.124;5.422;2024-03-06T07:44:25;102208.94;;;3.64;100.00
71964;BME280;59834;52.124;5.422;2024-03-06T07:46:52;102213.09;;;3.74;100.00
71964;BME280;59834;52.124;5.422;2024-03-06T07:49:20;102211.34;;;3.78;100.00
71964;BME280;59834;52.124;5.422;2024-03-06T07:51:50;102217.22;;;3.91;100.00
71964;BME280;59834;52.124;5.422;2024-03-06T07:54:16;102212.84;;;3.94;100.00
71964;BME280;59834;52.124;5.422;2024-03-06T07:56:43;102222.22;;;4.03;100.00
71964;BME280;59834;52.124;5.422;2024-03-06T07:59:10;102223.13;;;3.99;100.00
71964;BME280;59834;52.124;5.422;2024-03-06T08:01:39;102225.78;;;3.94;100.00
71964;BME280;59834;52.124;5.422;2024-03-06T08:04:06;102230.97;;;3.94;100.00
71964;BME280;59834;52.124;5.422;2024-03-06T08:06:33;102232.75;;;3.91;100.00
71964;BME280;59834;52.124;5.422;2024-03-06T08:09:00;102237.00;;;3.95;100.00
71964;BME280;59834;52.124;5.422;2024-03-06T08:11:29;102237.81;;;4.00;100.00
71964;BME280;59834;52.124;5.422;2024-03-06T08:13:59;102236.81;;;4.10;100.00
71964;BME280;59834;52.124;5.422;2024-03-06T08:16:27;102230.69;;;4.14;100.00
71964;BME280;59834;52.124;5.422;2024-03-06T08:18:55;102230.66;;;4.17;100.00
71964;BME280;59834;52.124;5.422;2024-03-06T08:21:21;102242.59;;;4.28;100.00
71964;BME280;59834;52.124;5.422;2024-03-06T08:23:49;102243.44;;;4.30;100.00
71964;BME280;59834;52.124;5.422;2024-03-06T08:26:16;102244.13;;;4.41;100.00
71964;BME280;59834;52.124;5.422;2024-03-06T08:28:43;102247.25;;;4.61;100.00
71964;BME280;59834;52.124;5.422;2024-03-06T08:31:09;102250.72;;;4.62;100.00
71964;BME280;59834;52.124;5.422;2024-03-06T08:33:36;102249.84;;;4.61;100.00
71964;BME280;59834;52.124;5.422;2024-03-06T08:36:04;102260.97;;;4.69;100.00
71964;BME280;59834;52.124;5.422;2024-03-06T08:38:31;102262.72;;;4.67;100.00
71964;BME280;59834;52.124;5.422;2024-03-06T08:40:57;102263.56;;;4.69;100.00
71964;BME280;59834;52.124;5.422;2024-03-06T08:43:24;102270.19;;;4.86;100.00
71964;BME280;59834;52.124;5.422;2024-03-06T08:45:51;102272.63;;;4.95;100.00
71964;BME280;59834;52.124;5.422;2024-03-06T08:48:18;102272.59;;;4.98;100.00
71964;BME280;59834;52.124;5.422;2024-03-06T08:50:44;102280.22;;;5.06;100.00
71964;BME280;59834;52.124;5.422;2024-03-06T08:53:12;102280.22;;;5.07;100.00
71964;BME280;59834;52.124;5.422;2024-03-06T08:55:40;102280.19;;;5.09;100.00
71964;BME280;59834;52.124;5.422;2024-03-06T08:58:07;102280.81;;;5.22;100.00
71964;BME280;59834;52.124;5.422;2024-03-06T09:00:35;102289.44;;;5.24;100.00
71964;BME280;59834;52.124;5.422;2024-03-06T09:03:01;102291.91;;;5.31;100.00
71964;BME280;59834;52.124;5.422;2024-03-06T09:05:28;102288.31;;;5.38;100.00
71964;BME280;59834;52.124;5.422;2024-03-06T09:07:55;102290.88;;;5.40;100.00
71964;BME280;59834;52.124;5.422;2024-03-06T09:10:27;102299.31;;;5.51;100.00
71964;BME280;59834;52.124;5.422;2024-03-06T09:12:54;102301.81;;;5.57;100.00
71964;BME280;59834;52.124;5.422;2024-03-06T09:15:21;102298.16;;;5.67;100.00
71964;BME280;59834;52.124;5.422;2024-03-06T09:17:48;102304.88;;;5.76;100.00
71964;BME280;59834;52.124;5.422;2024-03-06T09:20:15;102304.88;;;5.78;100.00
71964;BME280;59834;52.124;5.422;2024-03-06T09:22:42;102309.06;;;5.85;100.00
71964;BME280;59834;52.124;5.422;2024-03-06T09:25:10;102314.94;;;5.95;100.00
71964;BME280;59834;52.124;5.422;2024-03-06T09:27:41;102315.56;;;6.07;100.00
71964;BME280;59834;52.124;5.422;2024-03-06T09:30:08;102318.00;;;6.15;100.00
71964;BME280;59834;52.124;5.422;2024-03-06T09:32:37;102323.78;;;6.28;100.00
71964;BME280;59834;52.124;5.422;2024-03-06T09:35:06;102330.69;;;6.29;100.00
71964;BME280;59834;52.124;5.422;2024-03-06T09:37:33;102336.75;;;6.29;100.00
71964;BME280;59834;52.124;5.422;2024-03-06T09:39:59;102330.81;;;6.23;100.00
71964;BME280;59834;52.124;5.422;2024-03-06T09:42:27;102337.88;;;6.18;100.00
71964;BME280;59834;52.124;5.422;2024-03-06T09:44:56;102339.44;;;6.25;100.00
71964;BME280;59834;52.124;5.422;2024-03-06T09:47:23;102336.50;;;6.40;100.00
71964;BME280;59834;52.124;5.422;2024-03-06T09:49:52;102337.94;;;6.53;100.00
71964;BME280;59834;52.124;5.422;2024-03-06T09:52:23;102341.41;;;6.54;100.00
71964;BME280;59834;52.124;5.422;2024-03-06T09:54:55;102347.59;;;6.48;100.00
71964;BME280;59834;52.124;5.422;2024-03-06T09:57:22;102341.16;;;6.65;100.00
71964;BME280;59834;52.124;5.422;2024-03-06T09:59:49;102345.22;;;6.76;100.00
71964;BME280;59834;52.124;5.422;2024-03-06T10:02:38;102349.44;;;6.80;100.00
71964;BME280;59834;52.124;5.422;2024-03-06T10:05:21;102352.69;;;6.92;100.00
71964;BME280;59834;52.124;5.422;2024-03-06T10:07:50;102354.50;;;6.88;100.00
71964;BME280;59834;52.124;5.422;2024-03-06T10:10:22;102360.28;;;7.01;100.00
71964;BME280;59834;52.124;5.422;2024-03-06T10:12:51;102363.56;;;7.07;100.00
71964;BME280;59834;52.124;5.422;2024-03-06T10:15:18;102360.78;;;7.15;100.00
71964;BME280;59834;52.124;5.422;2024-03-06T10:17:45;102356.28;;;7.20;100.00
71964;BME280;59834;52.124;5.422;2024-03-06T10:20:23;102361.16;;;7.34;100.00
71964;BME280;59834;52.124;5.422;2024-03-06T10:22:52;102364.13;;;7.54;100.00
71964;BME280;59834;52.124;5.422;2024-03-06T10:25:24;102367.31;;;7.64;100.00
71964;BME280;59834;52.124;5.422;2024-03-06T10:28:07;102363.00;;;7.63;100.00
71964;BME280;59834;52.124;5.422;2024-03-06T10:30:39;102371.50;;;7.71;100.00
71964;BME280;59834;52.124;5.422;2024-03-06T10:33:09;102368.22;;;7.63;100.00
71964;BME280;59834;52.124;5.422;2024-03-06T10:35:37;102367.53;;;7.56;100.00
71964;BME280;59834;52.124;5.422;2024-03-06T10:38:05;102375.69;;;7.43;100.00
71964;BME280;59834;52.124;5.422;2024-03-06T10:40:34;102373.88;;;7.46;100.00
71964;BME280;59834;52.124;5.422;2024-03-06T10:43:01;102379.41;;;7.67;100.00
71964;BME280;59834;52.124;5.422;2024-03-06T10:48:00;102378.09;;;7.83;100.00
71964;BME280;59834;52.124;5.422;2024-03-06T10:50:30;102383.56;;;7.74;100.00
71964;BME280;59834;52.124;5.422;2024-03-06T10:52:57;102379.88;;;7.81;100.00
71964;BME280;59834;52.124;5.422;2024-03-06T10:55:27;102384.47;;;8.04;100.00
71964;BME280;59834;52.124;5.422;2024-03-06T10:57:55;102387.13;;;8.02;100.00
71964;BME280;59834;52.124;5.422;2024-03-06T11:00:24;102382.09;;;7.96;100.00
71964;BME280;59834;52.124;5.422;2024-03-06T11:02:51;102388.19;;;7.95;100.00
71964;BME280;59834;52.124;5.422;2024-03-06T11:05:19;102381.06;;;8.02;100.00
71964;BME280;59834;52.124;5.422;2024-03-06T11:07:46;102384.06;;;8.18;100.00
71964;BME280;59834;52.124;5.422;2024-03-06T11:10:13;102383.19;;;8.19;100.00
71964;BME280;59834;52.124;5.422;2024-03-06T11:12:43;102380.41;;;8.25;100.00
71964;BME280;59834;52.124;5.422;2024-03-06T11:15:15;102395.47;;;8.46;100.00
71964;BME280;59834;52.124;5.422;2024-03-06T11:17:45;102383.78;;;8.58;100.00
71964;BME280;59834;52.124;5.422;2024-03-06T11:20:18;102395.34;;;8.79;100.00
71964;BME280;59834;52.124;5.422;2024-03-06T11:28:27;102395.59;;;8.11;100.00
71964;BME280;59834;52.124;5.422;2024-03-06T11:33:22;102389.59;;;8.96;100.00
71964;BME280;59834;52.124;5.422;2024-03-06T11:41:25;102408.59;;;8.43;100.00
71964;BME280;59834;52.124;5.422;2024-03-06T11:43:53;102396.72;;;8.63;100.00
71964;BME280;59834;52.124;5.422;2024-03-06T11:46:20;102395.25;;;8.82;100.00
71964;BME280;59834;52.124;5.422;2024-03-06T11:48:54;102404.16;;;8.75;100.00
71964;BME280;59834;52.124;5.422;2024-03-06T11:51:24;102400.38;;;8.85;100.00
71964;BME280;59834;52.124;5.422;2024-03-06T11:53:52;102408.59;;;8.71;100.00
71964;BME280;59834;52.124;5.422;2024-03-06T11:56:20;102403.84;;;8.86;100.00
71964;BME280;59834;52.124;5.422;2024-03-06T11:58:47;102406.66;;;9.06;100.00
71964;BME280;59834;52.124;5.422;2024-03-06T12:01:16;102400.44;;;9.10;100.00
71964;BME280;59834;52.124;5.422;2024-03-06T12:03:43;102404.16;;;9.03;100.00
71964;BME280;59834;52.124;5.422;2024-03-06T12:06:10;102405.56;;;9.13;100.00
71964;BME280;59834;52.124;5.422;2024-03-06T12:08:37;102404.38;;;9.22;100.00
71964;BME280;59834;52.124;5.422;2024-03-06T12:11:05;102402.59;;;9.24;100.00
71964;BME280;59834;52.124;5.422;2024-03-06T12:13:32;102398.50;;;9.42;100.00
71964;BME280;59834;52.124;5.422;2024-03-06T12:15:59;102403.91;;;9.37;100.00
71964;BME280;59834;52.124;5.422;2024-03-06T12:18:30;102402.97;;;9.38;100.00
71964;BME280;59834;52.124;5.422;2024-03-06T12:21:00;102405.81;;;9.32;100.00
71964;BME280;59834;52.124;5.422;2024-03-06T12:23:29;102404.94;;;9.32;100.00
71964;BME280;59834;52.124;5.422;2024-03-06T12:26:06;102407.25;;;9.41;100.00
71964;BME280;59834;52.124;5.422;2024-03-06T12:28:36;102405.59;;;9.38;100.00
71964;BME280;59834;52.124;5.422;2024-03-06T12:31:04;102400.69;;;9.56;100.00
71964;BME280;59834;52.124;5.422;2024-03-06T12:33:31;102409.00;;;9.67;100.00
71964;BME280;59834;52.124;5.422;2024-03-06T12:36:05;102402.31;;;9.83;100.00
71964;BME280;59834;52.124;5.422;2024-03-06T12:38:33;102398.47;;;9.94;100.00
71964;BME280;59834;52.124;5.422;2024-03-06T12:41:00;102408.94;;;9.94;100.00
71964;BME280;59834;52.124;5.422;2024-03-06T12:43:27;102408.34;;;9.85;100.00
71964;BME280;59834;52.124;5.422;2024-03-06T12:45:55;102404.63;;;9.93;100.00
71964;BME280;59834;52.124;5.422;2024-03-06T12:48:24;102398.00;;;10.06;100.00
71964;BME280;59834;52.124;5.422;2024-03-06T12:50:52;102396.19;;;10.08;100.00
71964;BME280;59834;52.124;5.422;2024-03-06T12:53:21;102396.16;;;10.09;99.81
71964;BME280;59834;52.124;5.422;2024-03-06T12:55:48;102394.78;;;10.23;98.72
71964;BME280;59834;52.124;5.422;2024-03-06T12:58:15;102392.69;;;10.32;97.13
71964;BME280;59834;52.124;5.422;2024-03-06T13:00:41;102391.63;;;10.38;97.52
71964;BME280;59834;52.124;5.422;2024-03-06T13:03:08;102397.44;;;10.46;95.19
71964;BME280;59834;52.124;5.422;2024-03-06T13:05:44;102387.00;;;10.45;95.01
71964;BME280;59834;52.124;5.422;2024-03-06T13:08:13;102393.03;;;10.23;93.25
71964;BME280;59834;52.124;5.422;2024-03-06T13:10:41;102389.69;;;9.95;94.60
71964;BME280;59834;52.124;5.422;2024-03-06T13:13:08;102397.19;;;9.80;95.50
71964;BME280;59834;52.124;5.422;2024-03-06T13:15:35;102398.31;;;9.73;96.08